createdAt,value
2023-05-20T00:01:30.430Z,2.72
2023-05-20T00:05:32.008Z,2.88
2023-05-20T00:09:33.447Z,2.85
2023-05-20T00:13:36.030Z,3.40
2023-05-20T00:17:38.053Z,3.15
2023-05-20T00:21:39.562Z,2.97
2023-05-20T00:25:41.043Z,2.78
2023-05-20T00:29:42.538Z,2.55
2023-05-20T00:33:44.035Z,3.10
2023-05-20T00:37:45.484Z,3.03
2023-05-20T00:41:46.994Z,2.60
2023-05-20T00:45:48.678Z,2.80
2023-05-20T00:49:51.619Z,2.88
2023-05-20T00:53:53.674Z,3.00
2023-05-20T00:57:55.541Z,3.15
2023-05-20T01:01:57.334Z,3.08
2023-05-20T01:05:58.922Z,2.50
2023-05-20T01:10:00.819Z,2.58
2023-05-20T01:14:08.177Z,2.70
2023-05-20T01:18:10.732Z,2.58
2023-05-20T01:22:14.412Z,2.70
2023-05-20T01:26:17.126Z,3.30
2023-05-20T01:30:20.166Z,2.92
2023-05-20T01:34:21.911Z,2.78
2023-05-20T01:38:24.463Z,3.38
2023-05-20T01:42:27.878Z,3.60
2023-05-20T01:46:33.479Z,2.65
2023-05-20T01:50:34.978Z,3.38
2023-05-20T01:54:36.718Z,3.25
2023-05-20T01:58:38.233Z,2.75
2023-05-20T02:02:39.794Z,3.58
2023-05-20T02:06:41.356Z,3.42
2023-05-20T02:10:42.838Z,3.30
2023-05-20T02:14:48.202Z,2.90
2023-05-20T02:18:51.624Z,3.10
2023-05-20T02:22:53.129Z,2.63
2023-05-20T02:26:55.767Z,3.30
2023-05-20T02:30:57.242Z,3.13
2023-05-20T02:34:58.770Z,2.88
2023-05-20T02:39:01.165Z,2.92
2023-05-20T02:43:03.025Z,3.08
2023-05-20T02:47:04.694Z,3.20
2023-05-20T02:51:06.237Z,2.90
2023-05-20T02:55:08.678Z,2.90
2023-05-20T02:59:10.223Z,2.95
2023-05-20T03:03:13.550Z,2.88
2023-05-20T03:07:17.551Z,2.85
2023-05-20T03:11:19.019Z,3.42
2023-05-20T03:15:20.598Z,3.22
2023-05-20T03:19:22.642Z,3.85
2023-05-20T03:23:24.155Z,3.60
2023-05-20T03:27:26.527Z,3.38
2023-05-20T03:31:28.092Z,2.97
2023-05-20T03:35:30.155Z,3.47
2023-05-20T03:39:31.733Z,3.38
2023-05-20T03:43:33.215Z,3.50
2023-05-20T03:47:34.785Z,3.15
2023-05-20T03:51:36.453Z,3.47
2023-05-20T03:55:39.446Z,3.42
2023-05-20T03:59:41.029Z,3.40
2023-05-20T04:03:42.714Z,3.63
2023-05-20T04:07:44.317Z,3.75
2023-05-20T04:11:45.891Z,3.47
2023-05-20T04:15:47.691Z,3.58
2023-05-20T04:19:49.205Z,4.20
2023-05-20T04:23:51.783Z,3.53
2023-05-20T04:27:54.274Z,3.60
2023-05-20T04:31:58.633Z,3.60
2023-05-20T04:36:01.500Z,3.60
2023-05-20T04:40:06.541Z,3.45
2023-05-20T04:44:08.161Z,3.50
2023-05-20T04:48:09.672Z,3.65
2023-05-20T04:52:11.376Z,3.95
2023-05-20T04:56:13.514Z,4.13
2023-05-20T05:00:15.956Z,3.97
2023-05-20T05:04:17.497Z,4.13
2023-05-20T05:08:18.955Z,3.35
2023-05-20T05:12:20.502Z,3.90
2023-05-20T05:16:22.501Z,3.70
2023-05-20T05:20:24.045Z,3.33
2023-05-20T05:24:25.804Z,4.15
2023-05-20T05:28:27.384Z,3.90
2023-05-20T05:32:29.027Z,4.32
2023-05-20T05:36:33.749Z,4.15
2023-05-20T05:40:35.626Z,3.55
2023-05-20T05:44:37.124Z,4.53
2023-05-20T05:48:38.729Z,4.20
2023-05-20T05:52:41.274Z,4.60
2023-05-20T05:56:43.003Z,4.55
2023-05-20T06:00:44.667Z,4.65
2023-05-20T06:04:46.246Z,4.13
2023-05-20T06:08:47.897Z,4.72
2023-05-20T06:12:49.490Z,4.30
2023-05-20T06:16:51.035Z,4.68
2023-05-20T06:20:59.839Z,5.07
2023-05-20T06:25:02.424Z,4.53
2023-05-20T06:29:04.102Z,4.50
2023-05-20T06:33:05.861Z,4.88
2023-05-20T06:37:07.340Z,4.72
2023-05-20T06:41:08.858Z,5.18
2023-05-20T06:45:10.911Z,5.38
2023-05-20T06:49:12.348Z,5.13
2023-05-20T06:53:13.849Z,4.60
2023-05-20T06:57:16.005Z,4.90
2023-05-20T07:01:18.268Z,4.22
2023-05-20T07:05:20.361Z,4.68
2023-05-20T07:09:21.926Z,4.78
2023-05-20T07:13:24.056Z,4.70
2023-05-20T07:17:26.102Z,5.25
2023-05-20T07:21:27.614Z,4.95
2023-05-20T07:25:29.106Z,4.50
2023-05-20T07:29:30.578Z,4.55
2023-05-20T07:33:32.837Z,5.07
2023-05-20T07:37:34.293Z,4.50
2023-05-20T07:41:35.849Z,4.53
2023-05-20T07:45:37.993Z,4.80
2023-05-20T07:49:39.781Z,5.15
2023-05-20T07:53:41.463Z,4.07
2023-05-20T07:57:44.686Z,4.53
2023-05-20T08:01:46.431Z,4.35
2023-05-20T08:05:47.943Z,5.00
2023-05-20T08:09:49.384Z,4.18
2023-05-20T08:13:50.951Z,4.40
2023-05-20T08:17:52.527Z,4.55
2023-05-20T08:21:54.359Z,4.40
2023-05-20T08:25:57.412Z,4.38
2023-05-20T08:30:00.599Z,4.47
2023-05-20T08:34:02.792Z,4.40
2023-05-20T08:38:04.298Z,4.30
2023-05-20T08:42:08.139Z,4.78
2023-05-20T08:46:09.723Z,5.53
2023-05-20T08:50:12.574Z,4.05
2023-05-20T08:54:16.833Z,5.50
2023-05-20T08:58:20.450Z,4.63
2023-05-20T09:02:23.180Z,4.50
2023-05-20T09:06:28.225Z,3.85
2023-05-20T09:10:30.118Z,4.55
2023-05-20T09:14:31.929Z,4.20
2023-05-20T09:18:33.529Z,7.88
2023-05-20T09:22:35.033Z,5.43
2023-05-20T09:26:36.929Z,5.43
2023-05-20T09:30:38.539Z,5.63
2023-05-20T09:34:42.157Z,5.18
2023-05-20T09:38:45.228Z,4.57
2023-05-20T09:42:59.017Z,5.75
2023-05-20T09:47:01.240Z,5.32
2023-05-20T09:51:04.385Z,5.53
2023-05-20T09:55:06.866Z,5.20
2023-05-20T09:59:10.601Z,5.43
2023-05-20T10:03:13.133Z,5.65
2023-05-20T10:07:42.590Z,6.15
2023-05-20T10:11:50.064Z,6.70
2023-05-20T10:16:27.350Z,6.10
2023-05-20T10:20:29.442Z,5.35
2023-05-20T10:24:43.056Z,6.63
2023-05-20T10:28:46.500Z,6.20
2023-05-20T10:32:57.524Z,5.28
2023-05-20T10:36:59.460Z,6.57
2023-05-20T10:41:13.601Z,5.82
2023-05-20T10:45:28.930Z,5.85
2023-05-20T10:49:34.928Z,5.68
2023-05-20T10:53:40.127Z,5.30
2023-05-20T10:57:42.499Z,14.40
2023-05-20T11:01:44.311Z,5.63
2023-05-20T11:05:47.447Z,6.05
2023-05-20T11:09:52.087Z,6.53
2023-05-20T11:13:53.659Z,5.40
2023-05-20T11:17:56.091Z,6.22
2023-05-20T11:21:57.731Z,5.65
2023-05-20T11:25:59.543Z,5.85
2023-05-20T11:30:01.956Z,6.78
2023-05-20T11:34:04.203Z,5.57
2023-05-20T11:38:09.054Z,5.72
2023-05-20T11:42:10.552Z,6.78
2023-05-20T11:46:12.146Z,5.82
2023-05-20T11:50:18.685Z,5.45
2023-05-20T11:54:22.651Z,5.35
2023-05-20T11:58:32.906Z,5.18
2023-05-20T12:02:34.460Z,5.70
2023-05-20T12:06:46.844Z,4.95
2023-05-20T12:10:48.426Z,4.95
2023-05-20T12:14:49.956Z,5.50
2023-05-20T12:18:51.578Z,5.00
2023-05-20T12:22:53.336Z,4.82
2023-05-20T12:26:54.920Z,4.70
2023-05-20T12:30:56.381Z,5.50
2023-05-20T12:34:58.026Z,5.97
2023-05-20T12:38:59.510Z,5.55
2023-05-20T12:43:04.312Z,5.18
2023-05-20T12:47:05.924Z,5.13
2023-05-20T12:51:07.666Z,5.45
2023-05-20T12:55:13.912Z,5.50
2023-05-20T12:59:15.445Z,5.95
2023-05-20T13:03:17.101Z,5.10
2023-05-20T13:07:18.781Z,6.47
2023-05-20T13:11:20.603Z,5.75
2023-05-20T13:15:22.074Z,5.43
2023-05-20T13:19:24.469Z,5.93
2023-05-20T13:23:26.137Z,5.70
2023-05-20T13:27:28.104Z,6.18
2023-05-20T13:31:30.132Z,5.82
2023-05-20T13:35:32.241Z,5.30
2023-05-20T13:39:33.870Z,6.15
2023-05-20T13:43:35.498Z,5.22
2023-05-20T13:47:37.202Z,5.22
2023-05-20T13:51:38.860Z,8.13
2023-05-20T13:55:41.591Z,5.68
2023-05-20T13:59:43.209Z,7.00
2023-05-20T14:03:45.059Z,5.45
2023-05-20T14:07:46.772Z,5.45
2023-05-20T14:11:48.672Z,5.30
2023-05-20T14:15:51.114Z,5.32
2023-05-20T14:19:52.716Z,5.43
2023-05-20T14:23:54.229Z,4.95
2023-05-20T14:27:55.697Z,5.35
2023-05-20T14:31:57.337Z,5.10
2023-05-20T14:35:59.224Z,5.47
2023-05-20T14:40:01.850Z,5.65
2023-05-20T14:44:03.350Z,5.13
2023-05-20T14:48:05.245Z,4.80
2023-05-20T14:52:07.649Z,4.72
2023-05-20T14:56:09.223Z,5.00
2023-05-20T15:00:11.683Z,5.40
2023-05-20T15:04:13.213Z,4.95
2023-05-20T15:08:14.826Z,4.30
2023-05-20T15:12:16.605Z,4.65
2023-05-20T15:16:19.417Z,4.60
2023-05-20T15:20:21.144Z,4.32
2023-05-20T15:24:22.752Z,4.30
2023-05-20T15:28:24.711Z,5.10
2023-05-20T15:32:26.311Z,4.40
2023-05-20T15:36:27.880Z,4.22
2023-05-20T15:40:29.396Z,5.13
2023-05-20T15:44:31.000Z,4.50
2023-05-20T15:48:34.677Z,4.57
2023-05-20T15:52:36.337Z,4.63
2023-05-20T15:56:38.106Z,5.40
2023-05-20T16:00:39.978Z,4.35
2023-05-20T16:04:41.457Z,4.13
2023-05-20T16:08:42.929Z,4.43
2023-05-20T16:12:44.535Z,4.93
2023-05-20T16:16:46.700Z,4.00
2023-05-20T16:20:48.387Z,3.72
2023-05-20T16:24:49.989Z,4.97
2023-05-20T16:28:51.457Z,4.50
2023-05-20T16:32:53.241Z,4.50
2023-05-20T16:36:55.106Z,4.10
2023-05-20T16:40:56.874Z,4.30
2023-05-20T16:44:58.448Z,4.13
2023-05-20T16:49:00.033Z,4.47
2023-05-20T16:53:01.603Z,5.03
2023-05-20T16:57:06.594Z,4.25
2023-05-20T17:01:08.338Z,4.63
2023-05-20T17:05:09.994Z,4.50
2023-05-20T17:09:11.641Z,6.40
2023-05-20T17:13:13.150Z,4.70
2023-05-20T17:17:15.075Z,4.53
2023-05-20T17:21:20.253Z,5.25
2023-05-20T17:25:21.836Z,4.78
2023-05-20T17:29:23.358Z,5.38
2023-05-20T17:33:24.960Z,5.75
2023-05-20T17:37:26.737Z,5.43
2023-05-20T17:41:28.250Z,5.57
2023-05-20T17:45:29.714Z,5.05
2023-05-20T17:49:31.340Z,5.13
2023-05-20T17:53:32.815Z,5.47
2023-05-20T17:57:34.433Z,5.70
2023-05-20T18:01:37.391Z,5.85
2023-05-20T18:05:39.212Z,5.75
2023-05-20T18:09:40.876Z,7.15
2023-05-20T18:13:42.562Z,5.25
2023-05-20T18:17:45.096Z,5.47
2023-05-20T18:21:46.616Z,6.25
2023-05-20T18:25:48.253Z,5.53
2023-05-20T18:29:49.971Z,5.28
2023-05-20T18:33:51.581Z,5.63
2023-05-20T18:37:53.128Z,5.15
2023-05-20T18:41:54.682Z,5.00
2023-05-20T18:45:56.341Z,4.70
2023-05-20T18:49:57.892Z,5.07
2023-05-20T18:54:00.205Z,5.50
2023-05-20T18:58:01.744Z,5.70
2023-05-20T19:02:03.267Z,5.78
2023-05-20T19:06:04.827Z,7.20
2023-05-20T19:10:07.272Z,5.93
2023-05-20T19:14:08.896Z,5.70
2023-05-20T19:18:11.298Z,5.40
2023-05-20T19:22:13.061Z,5.40
2023-05-20T19:26:14.759Z,5.30
2023-05-20T19:30:16.488Z,5.00
2023-05-20T19:34:17.981Z,5.25
2023-05-20T19:38:19.588Z,6.15
2023-05-20T19:42:21.241Z,5.57
2023-05-20T19:46:22.918Z,5.40
2023-05-20T19:50:24.618Z,5.65
2023-05-20T19:54:26.810Z,4.93
2023-05-20T19:58:28.310Z,5.65
2023-05-20T20:02:29.896Z,5.72
2023-05-20T20:06:31.657Z,5.78
2023-05-20T20:10:34.488Z,5.50
2023-05-20T20:14:36.253Z,6.43
2023-05-20T20:18:37.990Z,5.95
2023-05-20T20:22:41.073Z,6.43
2023-05-20T20:26:42.561Z,5.80
2023-05-20T20:30:44.251Z,5.95
2023-05-20T20:34:46.009Z,6.20
2023-05-20T20:38:47.690Z,7.78
2023-05-20T20:42:50.008Z,8.18
2023-05-20T20:46:52.500Z,6.50
2023-05-20T20:50:54.325Z,6.63
2023-05-20T20:54:57.071Z,6.68
2023-05-20T20:58:58.632Z,6.45
2023-05-20T21:03:00.329Z,6.55
2023-05-20T21:07:02.338Z,6.43
2023-05-20T21:11:03.953Z,6.32
2023-05-20T21:15:06.088Z,5.80
2023-05-20T21:19:07.657Z,6.57
2023-05-20T21:23:09.235Z,6.63
2023-05-20T21:27:10.779Z,6.85
2023-05-20T21:31:12.274Z,7.55
2023-05-20T21:35:13.890Z,7.32
2023-05-20T21:39:15.450Z,6.65
2023-05-20T21:43:16.991Z,6.35
2023-05-20T21:47:20.477Z,8.90
2023-05-20T21:51:22.118Z,7.15
2023-05-20T21:55:23.845Z,7.80
2023-05-20T21:59:25.610Z,8.45
2023-05-20T22:03:27.201Z,7.90
2023-05-20T22:07:28.856Z,8.85
2023-05-20T22:11:30.481Z,8.70
2023-05-20T22:15:32.019Z,8.57
2023-05-20T22:19:34.069Z,8.40
2023-05-20T22:23:35.926Z,9.18
2023-05-20T22:27:38.951Z,7.95
2023-05-20T22:31:41.005Z,8.95
2023-05-20T22:35:42.527Z,8.88
2023-05-20T22:39:44.025Z,8.68
2023-05-20T22:43:45.508Z,9.40
2023-05-20T22:47:47.126Z,9.15
2023-05-20T22:51:49.053Z,9.18
2023-05-20T22:55:50.640Z,10.23
2023-05-20T22:59:53.897Z,10.52
2023-05-20T23:03:56.252Z,9.68
2023-05-20T23:07:58.887Z,9.90
2023-05-20T23:12:00.419Z,10.63
2023-05-20T23:16:01.986Z,10.70
2023-05-20T23:20:14.375Z,10.23
2023-05-20T23:24:16.681Z,10.68
2023-05-20T23:28:18.448Z,10.57
2023-05-20T23:32:19.947Z,11.02
2023-05-20T23:36:21.404Z,10.93
2023-05-20T23:40:23.073Z,11.63
2023-05-20T23:44:24.590Z,10.95
2023-05-20T23:48:26.333Z,11.50
2023-05-20T23:52:28.287Z,11.00
2023-05-20T23:56:29.859Z,12.15
